Time;durP1;ratioP1;P1;durP2;ratioP2;P2;SDS_P1;SDS_P2;PMS_P1;PMS_P2;Temp;Humidity;BMP_temperature;BMP_pressure;BME280_temperature;BME280_humidity;BME280_pressure;Samples;Min_cycle;Max_cycle;Signal;HPM_P1;HPM_P2
2022/12/01 00:01:18;;;;;;;;;;;5.80;99.90;;;;;;5012192;28;19952;-81
2022/12/01 00:03:47;;;;;;;;;;;5.80;99.90;;;;;;5011952;28;19921;-80
2022/12/01 00:06:18;;;;;;;;;;;5.80;99.90;;;;;;5012321;28;20687;-81
2022/12/01 00:11:38;;;;;;;;;;;5.90;99.90;;;;;;5021383;28;20396;-81
2022/12/01 00:14:05;;;;;;;;;;;5.80;99.90;;;;;;5020774;28;20405;-82
2022/12/01 00:16:31;;;;;;;;;;;5.80;99.90;;;;;;5021043;28;19988;-84
2022/12/01 00:18:57;;;;;;;;;;;5.80;99.90;;;;;;4998837;28;19922;-80
2022/12/01 00:21:23;;;;;;;;;;;5.80;99.90;;;;;;4998637;28;19967;-82
2022/12/01 00:23:58;;;;;;;;;;;5.80;99.90;;;;;;5009756;28;20059;-85
2022/12/01 00:26:24;;;;;;;;;;;5.90;99.90;;;;;;5023041;28;20028;-83
2022/12/01 00:28:50;;;;;;;;;;;5.90;99.90;;;;;;4990866;28;19921;-81
2022/12/01 00:31:16;;;;;;;;;;;5.90;99.90;;;;;;5015986;28;19924;-81
2022/12/01 00:33:43;;;;;;;;;;;5.90;99.90;;;;;;5011222;28;19928;-80
2022/12/01 00:36:10;;;;;;;;;;;5.80;99.90;;;;;;5009608;28;19925;-82
2022/12/01 00:38:36;;;;;;;;;;;5.80;99.90;;;;;;5021739;28;20356;-81
2022/12/01 00:41:02;;;;;;;;;;;5.80;99.90;;;;;;5013440;28;20418;-81
2022/12/01 00:43:27;;;;;;;;;;;5.80;99.90;;;;;;5009744;28;19984;-81
2022/12/01 00:45:55;;;;;;;;;;;5.80;99.90;;;;;;5013728;28;20284;-81
2022/12/01 00:48:20;;;;;;;;;;;5.80;99.90;;;;;;5032303;28;20407;-85
2022/12/01 00:50:52;;;;;;;;;;;5.70;99.90;;;;;;5005278;28;20004;-80
2022/12/01 00:53:18;;;;;;;;;;;5.80;99.90;;;;;;5035695;28;19925;-81
2022/12/01 00:55:44;;;;;;;;;;;5.80;99.90;;;;;;5016851;28;19982;-81
2022/12/01 00:58:09;;;;;;;;;;;5.80;99.90;;;;;;4984930;28;19933;-82
2022/12/01 01:00:38;;;;;;;;;;;5.80;99.90;;;;;;5024960;28;20004;-81
2022/12/01 01:03:05;;;;;;;;;;;5.80;99.90;;;;;;5033879;28;19921;-80
2022/12/01 01:05:34;;;;;;;;;;;5.80;99.90;;;;;;5016512;28;19964;-80
2022/12/01 01:07:59;;;;;;;;;;;5.80;99.90;;;;;;5011817;28;20028;-80
2022/12/01 01:10:25;;;;;;;;;;;5.80;99.90;;;;;;5027537;28;20048;-80
2022/12/01 01:12:51;;;;;;;;;;;5.80;99.90;;;;;;5004851;28;20353;-80
2022/12/01 01:15:16;;;;;;;;;;;5.80;99.90;;;;;;5035590;28;19925;-81
2022/12/01 01:17:42;;;;;;;;;;;5.90;99.90;;;;;;5042011;28;19968;-80
2022/12/01 01:20:08;;;;;;;;;;;5.90;99.90;;;;;;5023500;28;20499;-80
2022/12/01 01:22:34;;;;;;;;;;;5.80;99.90;;;;;;5007462;28;19925;-81
2022/12/01 01:24:59;;;;;;;;;;;5.80;99.90;;;;;;4997855;28;20011;-82
2022/12/01 01:27:32;;;;;;;;;;;5.80;99.90;;;;;;5016569;28;19940;-85
2022/12/01 01:29:58;;;;;;;;;;;5.80;99.90;;;;;;5023069;28;20030;-81
2022/12/01 01:32:23;;;;;;;;;;;5.70;99.90;;;;;;5015652;28;20022;-80
2022/12/01 01:34:49;;;;;;;;;;;5.70;99.90;;;;;;5022813;28;19921;-80
2022/12/01 01:37:15;;;;;;;;;;;5.80;99.90;;;;;;5019814;28;19932;-80
2022/12/01 01:39:48;;;;;;;;;;;5.80;99.90;;;;;;5016379;28;21349;-81
2022/12/01 01:42:13;;;;;;;;;;;5.80;99.90;;;;;;5014070;28;19922;-81
2022/12/01 01:44:45;;;;;;;;;;;5.80;99.90;;;;;;5034314;28;19983;-80
2022/12/01 01:47:10;;;;;;;;;;;5.80;99.90;;;;;;5013385;28;19929;-81
2022/12/01 01:49:38;;;;;;;;;;;5.80;99.90;;;;;;5033637;28;20763;-81
2022/12/01 01:52:04;;;;;;;;;;;5.80;99.90;;;;;;5017056;28;19928;-81
2022/12/01 01:54:54;;;;;;;;;;;5.80;99.90;;;;;;5028103;28;19937;-81
2022/12/01 01:57:22;;;;;;;;;;;5.90;99.90;;;;;;5034495;28;19948;-81
2022/12/01 01:59:50;;;;;;;;;;;5.90;99.90;;;;;;5033677;28;19927;-81
2022/12/01 02:02:16;;;;;;;;;;;5.90;99.90;;;;;;5019850;28;19921;-80
2022/12/01 02:04:44;;;;;;;;;;;6.00;99.90;;;;;;5023424;28;20048;-87
2022/12/01 02:07:11;;;;;;;;;;;6.00;99.90;;;;;;5015299;28;20016;-81
2022/12/01 02:09:36;;;;;;;;;;;5.90;99.90;;;;;;5032367;28;20277;-81
2022/12/01 02:12:14;;;;;;;;;;;5.90;99.90;;;;;;5031617;28;20030;-80
2022/12/01 02:14:40;;;;;;;;;;;5.90;99.90;;;;;;5022609;28;19928;-81
2022/12/01 02:17:24;;;;;;;;;;;5.90;99.90;;;;;;5031832;28;19951;-80
2022/12/01 02:20:11;;;;;;;;;;;5.90;99.90;;;;;;5016408;28;19921;-80
2022/12/01 02:22:40;;;;;;;;;;;5.80;99.90;;;;;;5034745;28;21277;-85
2022/12/01 02:25:17;;;;;;;;;;;5.80;99.90;;;;;;5006153;28;19925;-80
2022/12/01 02:28:01;;;;;;;;;;;5.80;99.90;;;;;;5028476;28;19926;-80
2022/12/01 02:30:37;;;;;;;;;;;5.80;99.90;;;;;;5010562;28;19975;-81
2022/12/01 02:33:05;;;;;;;;;;;5.70;99.90;;;;;;5006519;28;20432;-81
2022/12/01 02:35:50;;;;;;;;;;;5.70;99.90;;;;;;5015324;28;20384;-80
2022/12/01 02:38:16;;;;;;;;;;;5.70;99.90;;;;;;5022186;28;20376;-81
2022/12/01 02:41:00;;;;;;;;;;;5.70;99.90;;;;;;5015935;28;19928;-81
2022/12/01 02:43:30;;;;;;;;;;;5.80;99.90;;;;;;5002056;28;20392;-81
2022/12/01 02:46:11;;;;;;;;;;;5.90;99.90;;;;;;5006126;28;19929;-84
2022/12/01 02:48:41;;;;;;;;;;;5.80;99.90;;;;;;5021059;28;19926;-81
2022/12/01 02:51:13;;;;;;;;;;;5.70;99.90;;;;;;4995077;28;19921;-81
2022/12/01 02:53:39;;;;;;;;;;;5.80;99.90;;;;;;5011266;28;19921;-81
2022/12/01 02:56:08;;;;;;;;;;;5.70;99.90;;;;;;5004688;28;19980;-81
2022/12/01 02:58:34;;;;;;;;;;;5.80;99.90;;;;;;5005293;28;19972;-81
2022/12/01 03:01:18;;;;;;;;;;;5.80;99.90;;;;;;5015281;28;19921;-81
2022/12/01 03:03:53;;;;;;;;;;;5.80;99.90;;;;;;5023718;28;19921;-81
2022/12/01 03:06:39;;;;;;;;;;;5.80;99.90;;;;;;5028307;28;19944;-81
2022/12/01 03:09:12;;;;;;;;;;;5.80;99.90;;;;;;5021527;28;19929;-81
2022/12/01 03:11:46;;;;;;;;;;;5.80;99.90;;;;;;5020229;28;19925;-81
2022/12/01 03:14:12;;;;;;;;;;;5.70;99.90;;;;;;5019799;28;19944;-81
2022/12/01 03:16:43;;;;;;;;;;;5.80;99.90;;;;;;5026796;28;20284;-81
2022/12/01 03:19:20;;;;;;;;;;;5.80;99.90;;;;;;5031708;28;19936;-81
2022/12/01 03:22:00;;;;;;;;;;;5.70;99.90;;;;;;5029007;28;19947;-81
2022/12/01 03:24:30;;;;;;;;;;;5.60;99.90;;;;;;5007572;28;19929;-81
2022/12/01 03:26:56;;;;;;;;;;;5.70;99.90;;;;;;5031707;28;20016;-85
2022/12/01 03:29:25;;;;;;;;;;;5.70;99.90;;;;;;5017848;28;19925;-82
2022/12/01 03:31:59;;;;;;;;;;;5.70;99.90;;;;;;5018644;28;19979;-81
2022/12/01 03:34:28;;;;;;;;;;;5.70;99.90;;;;;;4997632;28;20391;-80
2022/12/01 03:36:55;;;;;;;;;;;5.70;99.90;;;;;;5020866;28;20016;-82
2022/12/01 03:39:32;;;;;;;;;;;5.70;99.90;;;;;;5022792;28;20288;-81
2022/12/01 03:42:09;;;;;;;;;;;5.70;99.90;;;;;;5003802;28;19925;-80
2022/12/01 03:44:38;;;;;;;;;;;5.70;99.90;;;;;;5018789;28;20446;-81
2022/12/01 03:47:09;;;;;;;;;;;5.70;99.90;;;;;;5019332;28;19929;-82
2022/12/01 03:49:35;;;;;;;;;;;5.70;99.90;;;;;;4996372;28;20384;-81
2022/12/01 03:52:25;;;;;;;;;;;5.60;99.90;;;;;;5006774;28;19925;-81
2022/12/01 03:55:00;;;;;;;;;;;5.60;99.90;;;;;;5021636;28;19929;-82
2022/12/01 03:57:37;;;;;;;;;;;5.60;99.90;;;;;;5033103;28;20003;-83
2022/12/01 04:00:03;;;;;;;;;;;5.60;99.90;;;;;;5000895;28;19969;-81
2022/12/01 04:02:28;;;;;;;;;;;5.70;99.90;;;;;;5034875;28;19928;-82
2022/12/01 04:04:55;;;;;;;;;;;5.70;99.90;;;;;;5024064;28;21903;-80
2022/12/01 04:07:22;;;;;;;;;;;5.60;99.90;;;;;;5003690;28;19929;-81
2022/12/01 04:09:47;;;;;;;;;;;5.70;99.90;;;;;;5034842;28;19929;-81
2022/12/01 04:12:28;;;;;;;;;;;5.70;99.90;;;;;;5006085;28;19921;-81
2022/12/01 04:15:13;;;;;;;;;;;5.70;99.90;;;;;;5011572;28;19925;-83
2022/12/01 04:17:42;;;;;;;;;;;5.70;99.90;;;;;;5023131;28;19928;-82
2022/12/01 04:20:08;;;;;;;;;;;5.70;99.90;;;;;;5008002;28;19952;-81
2022/12/01 04:22:33;;;;;;;;;;;5.70;99.90;;;;;;5038660;28;19960;-83
2022/12/01 04:24:59;;;;;;;;;;;5.70;99.90;;;;;;5029467;28;19921;-81
2022/12/01 04:27:24;;;;;;;;;;;5.70;99.90;;;;;;5014714;28;20420;-82
2022/12/01 04:29:50;;;;;;;;;;;5.60;99.90;;;;;;5026581;28;19932;-82
2022/12/01 04:32:16;;;;;;;;;;;5.60;99.90;;;;;;5028382;28;19996;-81
2022/12/01 04:34:42;;;;;;;;;;;5.50;99.90;;;;;;5025027;28;19925;-81
2022/12/01 04:37:13;;;;;;;;;;;5.60;99.90;;;;;;4999492;28;19943;-82
2022/12/01 04:39:40;;;;;;;;;;;5.60;99.90;;;;;;5007871;28;20016;-80
2022/12/01 04:42:06;;;;;;;;;;;5.60;99.90;;;;;;5015578;28;21513;-81
2022/12/01 04:44:32;;;;;;;;;;;5.60;99.90;;;;;;5019664;28;19931;-83
2022/12/01 04:46:57;;;;;;;;;;;5.60;99.90;;;;;;5024349;28;20007;-83
2022/12/01 04:49:23;;;;;;;;;;;5.60;99.90;;;;;;5032099;28;19930;-81
2022/12/01 04:51:49;;;;;;;;;;;5.60;99.90;;;;;;5002762;28;19920;-81
2022/12/01 04:54:15;;;;;;;;;;;5.60;99.90;;;;;;5031660;28;20284;-81
2022/12/01 04:56:40;;;;;;;;;;;5.70;99.90;;;;;;5026212;28;19933;-82
2022/12/01 04:59:06;;;;;;;;;;;5.60;99.90;;;;;;5016106;28;19921;-82
2022/12/01 05:01:32;;;;;;;;;;;5.60;99.90;;;;;;5007279;28;19921;-81
2022/12/01 05:03:58;;;;;;;;;;;5.60;99.90;;;;;;5033696;28;19971;-81
2022/12/01 05:06:25;;;;;;;;;;;5.70;99.90;;;;;;5034295;28;20308;-81
2022/12/01 05:08:52;;;;;;;;;;;5.60;99.90;;;;;;5023435;28;19929;-80
2022/12/01 05:11:18;;;;;;;;;;;5.60;99.90;;;;;;5034663;28;19943;-80
2022/12/01 05:13:45;;;;;;;;;;;5.60;99.90;;;;;;5017444;28;20381;-81
2022/12/01 05:16:12;;;;;;;;;;;5.60;99.90;;;;;;5020355;28;20066;-81
2022/12/01 05:18:39;;;;;;;;;;;5.60;99.90;;;;;;5028083;28;20406;-81
2022/12/01 05:21:06;;;;;;;;;;;5.60;99.90;;;;;;4989810;28;19921;-81
2022/12/01 05:23:35;;;;;;;;;;;5.60;99.90;;;;;;5014506;28;19925;-81
2022/12/01 05:26:04;;;;;;;;;;;5.50;99.90;;;;;;5018317;28;19936;-81
2022/12/01 05:28:30;;;;;;;;;;;5.60;99.90;;;;;;5020250;28;19921;-81
2022/12/01 05:30:56;;;;;;;;;;;5.60;99.90;;;;;;5027157;28;19967;-81
2022/12/01 05:33:22;;;;;;;;;;;5.60;99.90;;;;;;5004212;28;19928;-81
2022/12/01 05:35:49;;;;;;;;;;;5.60;99.90;;;;;;5001822;28;19939;-82
2022/12/01 05:38:14;;;;;;;;;;;5.50;99.90;;;;;;5008376;28;19921;-81
2022/12/01 05:40:40;;;;;;;;;;;5.60;99.90;;;;;;5018186;28;19971;-81
2022/12/01 05:43:06;;;;;;;;;;;5.60;99.90;;;;;;5015089;28;20447;-81
2022/12/01 05:45:34;;;;;;;;;;;5.60;99.90;;;;;;5035495;28;19925;-81
2022/12/01 05:48:00;;;;;;;;;;;5.60;99.90;;;;;;5012194;28;19925;-82
2022/12/01 05:50:27;;;;;;;;;;;5.60;99.90;;;;;;5017846;28;19921;-81
2022/12/01 05:52:58;;;;;;;;;;;5.60;99.90;;;;;;5020475;28;19921;-81
2022/12/01 05:55:24;;;;;;;;;;;5.60;99.90;;;;;;5016541;28;20012;-82
2022/12/01 05:57:53;;;;;;;;;;;5.70;99.90;;;;;;5022293;28;19925;-80
2022/12/01 06:00:18;;;;;;;;;;;5.60;99.90;;;;;;5008114;28;20047;-82
2022/12/01 06:02:45;;;;;;;;;;;5.60;99.90;;;;;;5027680;28;19932;-81
2022/12/01 06:05:11;;;;;;;;;;;5.60;99.90;;;;;;5028913;28;20324;-81
2022/12/01 06:07:38;;;;;;;;;;;5.60;99.90;;;;;;5005230;28;19921;-81
2022/12/01 06:10:07;;;;;;;;;;;5.60;99.90;;;;;;5045734;28;19925;-81
2022/12/01 06:12:33;;;;;;;;;;;5.60;99.90;;;;;;5019765;28;20033;-81
2022/12/01 06:15:05;;;;;;;;;;;5.60;99.90;;;;;;5017306;28;19927;-81
2022/12/01 06:17:31;;;;;;;;;;;5.60;99.90;;;;;;5019986;28;19925;-81
2022/12/01 06:20:01;;;;;;;;;;;5.60;99.90;;;;;;5011650;28;20012;-81
2022/12/01 06:22:32;;;;;;;;;;;5.60;99.90;;;;;;5006525;28;19927;-81
2022/12/01 06:25:09;;;;;;;;;;;5.60;99.90;;;;;;5018644;28;20287;-81
2022/12/01 06:27:34;;;;;;;;;;;5.60;99.90;;;;;;5019134;28;20007;-81
2022/12/01 06:30:02;;;;;;;;;;;5.60;99.90;;;;;;5009397;28;20055;-81
2022/12/01 06:32:28;;;;;;;;;;;5.60;99.90;;;;;;5025588;28;20439;-82
2022/12/01 06:34:56;;;;;;;;;;;5.60;99.90;;;;;;5026160;28;19922;-84
2022/12/01 06:37:24;;;;;;;;;;;5.60;99.90;;;;;;5016837;28;20312;-81
2022/12/01 06:39:50;;;;;;;;;;;5.60;99.90;;;;;;5014395;28;20349;-81
2022/12/01 06:42:27;;;;;;;;;;;5.50;99.90;;;;;;5020532;28;19978;-83
2022/12/01 06:44:53;;;;;;;;;;;5.60;99.90;;;;;;5015563;28;19932;-81
2022/12/01 06:47:18;;;;;;;;;;;5.50;99.90;;;;;;5015592;28;19922;-81
2022/12/01 06:49:44;;;;;;;;;;;5.60;99.90;;;;;;5010269;28;20642;-81
2022/12/01 06:52:10;;;;;;;;;;;5.50;99.90;;;;;;5026649;28;19921;-81
2022/12/01 06:54:38;;;;;;;;;;;5.50;99.90;;;;;;5020566;28;20325;-81
2022/12/01 06:57:04;;;;;;;;;;;5.50;99.90;;;;;;4996860;28;19929;-81
2022/12/01 06:59:29;;;;;;;;;;;5.60;99.90;;;;;;5012829;28;20016;-82
2022/12/01 07:01:57;;;;;;;;;;;5.60;99.90;;;;;;5012940;28;19991;-81
2022/12/01 07:04:23;;;;;;;;;;;5.50;99.90;;;;;;4996110;28;19921;-81
2022/12/01 07:06:49;;;;;;;;;;;5.60;99.90;;;;;;4995955;28;19936;-81
2022/12/01 07:09:15;;;;;;;;;;;5.50;99.90;;;;;;4996218;28;19926;-81
2022/12/01 07:11:41;;;;;;;;;;;5.50;99.90;;;;;;4996252;28;19932;-81
2022/12/01 07:14:30;;;;;;;;;;;5.60;99.90;;;;;;5013037;28;19929;-81
2022/12/01 07:16:56;;;;;;;;;;;5.60;99.90;;;;;;5013136;28;19921;-81
2022/12/01 07:19:22;;;;;;;;;;;5.50;99.90;;;;;;5029414;28;20011;-81
2022/12/01 07:21:50;;;;;;;;;;;5.50;99.90;;;;;;5033111;28;20003;-81
2022/12/01 07:24:25;;;;;;;;;;;5.50;99.90;;;;;;5031404;28;20283;-84
2022/12/01 07:26:50;;;;;;;;;;;5.60;99.90;;;;;;5028432;28;20210;-82
2022/12/01 07:29:16;;;;;;;;;;;5.60;99.90;;;;;;5012244;28;19921;-81
2022/12/01 07:31:45;;;;;;;;;;;5.60;99.90;;;;;;5028985;28;19928;-81
2022/12/01 07:34:12;;;;;;;;;;;5.60;99.90;;;;;;5013308;28;20530;-81
2022/12/01 07:36:38;;;;;;;;;;;5.60;99.90;;;;;;5015071;28;19921;-81
2022/12/01 07:39:06;;;;;;;;;;;5.60;99.90;;;;;;4995278;28;20059;-83
2022/12/01 07:41:37;;;;;;;;;;;5.60;99.90;;;;;;5011983;28;19929;-81
2022/12/01 07:44:03;;;;;;;;;;;5.60;99.90;;;;;;5028505;28;19921;-81
2022/12/01 07:46:29;;;;;;;;;;;5.60;99.90;;;;;;5030851;28;20085;-83
2022/12/01 07:48:55;;;;;;;;;;;5.60;99.90;;;;;;4991240;28;19925;-83
2022/12/01 07:51:21;;;;;;;;;;;5.60;99.90;;;;;;5037638;28;19921;-83
2022/12/01 07:53:48;;;;;;;;;;;5.60;99.90;;;;;;5037127;28;20276;-82
2022/12/01 07:56:13;;;;;;;;;;;5.60;99.90;;;;;;5014414;28;19971;-82
2022/12/01 07:58:45;;;;;;;;;;;5.60;99.90;;;;;;5029327;28;19924;-82
2022/12/01 08:01:14;;;;;;;;;;;5.70;99.90;;;;;;5032367;28;20368;-82
2022/12/01 08:03:41;;;;;;;;;;;5.70;99.90;;;;;;5048423;28;20269;-82
2022/12/01 08:06:09;;;;;;;;;;;5.70;99.90;;;;;;5025482;28;20008;-82
2022/12/01 08:08:36;;;;;;;;;;;5.70;99.90;;;;;;5029304;28;19921;-81
2022/12/01 08:11:03;;;;;;;;;;;5.70;99.90;;;;;;5019268;28;19924;-82
2022/12/01 08:13:29;;;;;;;;;;;5.70;99.90;;;;;;5035397;28;19987;-81
2022/12/01 08:15:54;;;;;;;;;;;5.70;99.90;;;;;;5026494;28;19972;-83
2022/12/01 08:18:21;;;;;;;;;;;5.70;99.90;;;;;;5015880;28;20372;-80
2022/12/01 08:20:47;;;;;;;;;;;5.70;99.90;;;;;;5031236;28;19921;-81
2022/12/01 08:23:13;;;;;;;;;;;5.80;99.90;;;;;;5033782;28;19922;-82
2022/12/01 08:25:38;;;;;;;;;;;5.80;99.90;;;;;;5030502;28;19922;-82
2022/12/01 08:28:04;;;;;;;;;;;5.80;99.90;;;;;;5020075;28;20446;-81
2022/12/01 08:30:29;;;;;;;;;;;5.80;99.90;;;;;;5027552;28;19922;-81
2022/12/01 08:32:56;;;;;;;;;;;5.80;99.90;;;;;;5025708;28;19922;-82
2022/12/01 08:35:22;;;;;;;;;;;5.90;99.90;;;;;;5015181;28;19925;-82
2022/12/01 08:37:50;;;;;;;;;;;5.90;99.90;;;;;;5019608;28;20379;-81
2022/12/01 08:40:15;;;;;;;;;;;5.90;99.90;;;;;;5024655;28;20387;-82
2022/12/01 08:42:41;;;;;;;;;;;6.00;99.90;;;;;;5027971;28;19929;-82
2022/12/01 08:45:07;;;;;;;;;;;6.00;99.90;;;;;;5013441;28;20349;-82
2022/12/01 08:47:32;;;;;;;;;;;6.00;99.90;;;;;;5030178;28;19987;-81
2022/12/01 08:49:58;;;;;;;;;;;6.10;99.90;;;;;;5019753;28;19965;-81
2022/12/01 08:52:23;;;;;;;;;;;6.00;99.90;;;;;;5015002;28;19921;-81
2022/12/01 08:54:49;;;;;;;;;;;6.00;99.90;;;;;;4998969;28;19936;-81
2022/12/01 08:57:14;;;;;;;;;;;6.00;99.90;;;;;;5011039;28;19968;-81
2022/12/01 08:59:40;;;;;;;;;;;6.10;99.90;;;;;;5029526;28;19975;-84
2022/12/01 09:02:06;;;;;;;;;;;6.10;99.90;;;;;;4998839;28;19925;-81
2022/12/01 09:04:32;;;;;;;;;;;6.10;99.90;;;;;;5016223;28;19943;-82
2022/12/01 09:06:57;;;;;;;;;;;6.10;99.90;;;;;;5015935;28;19922;-82
2022/12/01 09:09:25;;;;;;;;;;;6.10;99.90;;;;;;5015904;28;19992;-82
2022/12/01 09:11:54;;;;;;;;;;;6.10;99.90;;;;;;5019966;28;19928;-82
2022/12/01 09:14:20;;;;;;;;;;;6.10;99.90;;;;;;5007567;28;19944;-82
2022/12/01 09:16:48;;;;;;;;;;;6.20;99.90;;;;;;5014268;28;19921;-82
2022/12/01 09:19:14;;;;;;;;;;;6.20;99.90;;;;;;5014738;28;19922;-81
2022/12/01 09:21:42;;;;;;;;;;;6.20;99.90;;;;;;5021726;28;20012;-81
2022/12/01 09:24:11;;;;;;;;;;;6.20;99.90;;;;;;5015623;28;19921;-82
2022/12/01 09:26:37;;;;;;;;;;;6.20;99.90;;;;;;5014247;28;19921;-82
2022/12/01 09:29:05;;;;;;;;;;;6.20;99.90;;;;;;5014769;28;20055;-82
2022/12/01 09:31:30;;;;;;;;;;;6.30;99.90;;;;;;5018874;28;19921;-84
2022/12/01 09:33:57;;;;;;;;;;;6.30;99.90;;;;;;5017489;28;19921;-82
2022/12/01 09:36:23;;;;;;;;;;;6.30;99.90;;;;;;5035320;28;19925;-82
2022/12/01 09:38:49;;;;;;;;;;;6.30;99.90;;;;;;5050956;28;20408;-81
2022/12/01 09:41:23;;;;;;;;;;;6.30;99.90;;;;;;5035221;28;20418;-81
2022/12/01 09:44:00;;;;;;;;;;;6.30;99.90;;;;;;5019521;28;20325;-81
2022/12/01 09:46:30;;;;;;;;;;;6.40;99.90;;;;;;5022387;28;19921;-82
2022/12/01 09:48:56;;;;;;;;;;;6.40;99.90;;;;;;5016517;28;19928;-81
2022/12/01 09:51:23;;;;;;;;;;;6.40;99.90;;;;;;5016401;28;20296;-81
2022/12/01 09:53:49;;;;;;;;;;;6.40;99.90;;;;;;5026549;28;19927;-82
2022/12/01 09:56:26;;;;;;;;;;;6.50;99.90;;;;;;5018149;28;20276;-81
2022/12/01 09:58:54;;;;;;;;;;;6.40;99.90;;;;;;5038359;28;20020;-81
2022/12/01 10:01:23;;;;;;;;;;;6.40;99.90;;;;;;5024214;28;19960;-82
2022/12/01 10:03:52;;;;;;;;;;;6.40;99.90;;;;;;5009227;28;19921;-82
2022/12/01 10:06:37;;;;;;;;;;;6.30;99.90;;;;;;5013880;28;20040;-82
2022/12/01 10:09:12;;;;;;;;;;;6.40;99.90;;;;;;5013504;28;19928;-83
2022/12/01 10:11:42;;;;;;;;;;;6.40;99.90;;;;;;5030294;28;19932;-85
2022/12/01 10:14:10;;;;;;;;;;;6.30;99.90;;;;;;5017135;28;19983;-81
2022/12/01 10:16:57;;;;;;;;;;;6.40;99.90;;;;;;5014675;28;19964;-81
2022/12/01 10:19:48;;;;;;;;;;;6.40;99.90;;;;;;5013896;28;20012;-82
2022/12/01 10:22:13;;;;;;;;;;;6.40;99.90;;;;;;5023396;28;19960;-82
2022/12/01 10:24:47;;;;;;;;;;;6.50;99.90;;;;;;5050201;28;19968;-82
2022/12/01 10:27:16;;;;;;;;;;;6.50;99.90;;;;;;5049165;28;19928;-81
2022/12/01 10:29:53;;;;;;;;;;;6.50;99.90;;;;;;5049632;28;19924;-81
2022/12/01 10:32:21;;;;;;;;;;;6.50;99.90;;;;;;5029637;28;19933;-82
2022/12/01 10:34:47;;;;;;;;;;;6.50;99.90;;;;;;5013441;28;20372;-81
2022/12/01 10:37:18;;;;;;;;;;;6.50;99.90;;;;;;5013135;28;19937;-81
2022/12/01 10:39:46;;;;;;;;;;;6.50;99.90;;;;;;5013420;28;20056;-81
2022/12/01 10:42:13;;;;;;;;;;;6.40;99.90;;;;;;4998909;28;19929;-82
2022/12/01 10:44:40;;;;;;;;;;;6.40;99.90;;;;;;5034012;28;19921;-83
2022/12/01 10:47:22;;;;;;;;;;;6.30;99.90;;;;;;5049308;28;19968;-82
2022/12/01 10:49:48;;;;;;;;;;;6.30;99.90;;;;;;5032900;28;19943;-81
2022/12/01 10:52:32;;;;;;;;;;;6.20;99.90;;;;;;5032963;28;20360;-82
2022/12/01 10:54:58;;;;;;;;;;;6.20;99.90;;;;;;5029475;28;19925;-82
2022/12/01 10:57:25;;;;;;;;;;;6.20;99.90;;;;;;5045836;28;20340;-82
2022/12/01 10:59:54;;;;;;;;;;;6.10;99.90;;;;;;5012904;28;20357;-82
2022/12/01 11:02:21;;;;;;;;;;;6.10;99.90;;;;;;5046234;28;19971;-81
2022/12/01 11:04:49;;;;;;;;;;;6.10;99.90;;;;;;5008647;28;19921;-82
2022/12/01 11:07:17;;;;;;;;;;;6.20;99.90;;;;;;5051112;28;19953;-82
2022/12/01 11:09:43;;;;;;;;;;;6.20;99.90;;;;;;5035216;28;19964;-82
2022/12/01 11:12:13;;;;;;;;;;;6.30;99.90;;;;;;5032534;28;20042;-82
2022/12/01 11:14:43;;;;;;;;;;;6.20;99.90;;;;;;5048986;28;20364;-81
2022/12/01 11:17:23;;;;;;;;;;;6.30;99.90;;;;;;5016086;28;20012;-81
2022/12/01 11:19:49;;;;;;;;;;;6.30;99.90;;;;;;5015851;28;19925;-82
2022/12/01 11:22:22;;;;;;;;;;;6.40;99.90;;;;;;5048958;28;19920;-81
2022/12/01 11:24:52;;;;;;;;;;;6.40;99.90;;;;;;5032011;28;19921;-82
2022/12/01 11:27:23;;;;;;;;;;;6.40;99.90;;;;;;5033320;28;19921;-82
2022/12/01 11:29:50;;;;;;;;;;;6.50;99.90;;;;;;5048749;28;20004;-82
2022/12/01 11:32:26;;;;;;;;;;;6.50;99.90;;;;;;5031413;28;19921;-81
2022/12/01 11:34:56;;;;;;;;;;;6.60;99.90;;;;;;5015032;28;19934;-83
2022/12/01 11:37:24;;;;;;;;;;;6.60;99.90;;;;;;5015413;28;20287;-82
2022/12/01 11:39:50;;;;;;;;;;;6.60;99.90;;;;;;5023495;28;20015;-83
2022/12/01 11:42:26;;;;;;;;;;;6.70;99.90;;;;;;5023008;28;19921;-82
2022/12/01 11:44:55;;;;;;;;;;;6.70;99.90;;;;;;5057335;28;19929;-81
2022/12/01 11:47:22;;;;;;;;;;;6.70;99.90;;;;;;5036944;28;19922;-82
2022/12/01 11:49:53;;;;;;;;;;;6.80;99.90;;;;;;5037818;28;19921;-82
2022/12/01 11:52:28;;;;;;;;;;;6.80;99.90;;;;;;5003547;28;19922;-80
2022/12/01 11:54:55;;;;;;;;;;;6.80;99.90;;;;;;5053610;28;20045;-81
2022/12/01 11:57:21;;;;;;;;;;;6.90;99.90;;;;;;5042741;28;19921;-81
2022/12/01 11:59:46;;;;;;;;;;;6.90;99.90;;;;;;5006757;28;19941;-83
2022/12/01 12:02:21;;;;;;;;;;;6.90;99.90;;;;;;5056181;28;19983;-82
2022/12/01 12:05:22;;;;;;;;;;;6.90;99.90;;;;;;5021488;28;19936;-81
2022/12/01 12:08:06;;;;;;;;;;;7.00;99.90;;;;;;5016381;28;19928;-82
2022/12/01 12:10:40;;;;;;;;;;;7.00;99.90;;;;;;4995529;28;19931;-81
2022/12/01 12:13:12;;;;;;;;;;;7.00;99.90;;;;;;5012430;28;20336;-81
2022/12/01 12:15:52;;;;;;;;;;;7.00;99.90;;;;;;5028732;28;19995;-81
2022/12/01 12:18:24;;;;;;;;;;;7.00;99.90;;;;;;5024119;28;19922;-82
2022/12/01 12:21:01;;;;;;;;;;;7.00;99.90;;;;;;5048330;28;20070;-81
2022/12/01 12:23:37;;;;;;;;;;;7.10;99.90;;;;;;5031478;28;19925;-81
2022/12/01 12:26:09;;;;;;;;;;;7.00;99.90;;;;;;5031684;28;19921;-81
2022/12/01 12:28:53;;;;;;;;;;;7.10;99.90;;;;;;5035554;28;20388;-81
2022/12/01 12:31:32;;;;;;;;;;;7.10;99.90;;;;;;5013066;28;19925;-82
2022/12/01 12:33:57;;;;;;;;;;;7.10;99.90;;;;;;5044832;28;19971;-81
2022/12/01 12:36:29;;;;;;;;;;;7.10;99.90;;;;;;4995495;28;19922;-82
2022/12/01 12:39:00;;;;;;;;;;;7.10;99.90;;;;;;5011595;28;20005;-81
2022/12/01 12:41:29;;;;;;;;;;;7.10;99.90;;;;;;5011860;28;19925;-81
2022/12/01 12:43:57;;;;;;;;;;;7.10;99.90;;;;;;5013057;28;19979;-83
2022/12/01 12:46:29;;;;;;;;;;;7.10;99.90;;;;;;5012732;28;19930;-81
2022/12/01 12:49:18;;;;;;;;;;;7.10;99.90;;;;;;5027890;28;19929;-82
2022/12/01 12:51:59;;;;;;;;;;;7.10;99.90;;;;;;5013013;28;19921;-82
2022/12/01 12:54:45;;;;;;;;;;;7.10;99.90;;;;;;5031925;28;19944;-81
2022/12/01 12:57:16;;;;;;;;;;;7.10;99.90;;;;;;4998494;28;19976;-81
2022/12/01 12:59:47;;;;;;;;;;;7.10;99.90;;;;;;5031828;28;19938;-82
2022/12/01 13:02:16;;;;;;;;;;;7.10;99.90;;;;;;4998882;28;20375;-82
2022/12/01 13:04:47;;;;;;;;;;;7.10;99.90;;;;;;5015985;28;19976;-82
2022/12/01 13:07:36;;;;;;;;;;;7.20;99.90;;;;;;4998648;28;19933;-83
2022/12/01 13:10:05;;;;;;;;;;;7.10;99.90;;;;;;5000142;28;19984;-81
2022/12/01 13:12:34;;;;;;;;;;;7.00;99.90;;;;;;5035605;28;20012;-82
2022/12/01 13:15:04;;;;;;;;;;;7.10;99.90;;;;;;5035663;28;19972;-81
2022/12/01 13:17:36;;;;;;;;;;;7.10;99.90;;;;;;5034432;28;19928;-83
2022/12/01 13:20:02;;;;;;;;;;;7.00;99.90;;;;;;5035579;28;19929;-82
2022/12/01 13:22:32;;;;;;;;;;;7.00;99.90;;;;;;5029070;28;19969;-83
2022/12/01 13:24:58;;;;;;;;;;;6.90;99.90;;;;;;5015798;28;19995;-81
2022/12/01 13:27:26;;;;;;;;;;;6.90;99.90;;;;;;5014504;28;19999;-81
2022/12/01 13:29:53;;;;;;;;;;;6.90;99.90;;;;;;5014708;28;20411;-82
2022/12/01 13:32:39;;;;;;;;;;;6.90;99.90;;;;;;5026584;28;19921;-82
2022/12/01 13:35:19;;;;;;;;;;;6.90;99.90;;;;;;5036516;28;20309;-82
2022/12/01 13:37:44;;;;;;;;;;;6.90;99.90;;;;;;5016973;28;19921;-83
2022/12/01 13:40:24;;;;;;;;;;;6.90;99.90;;;;;;5000247;28;19921;-82
2022/12/01 13:42:52;;;;;;;;;;;6.90;99.90;;;;;;4998387;28;20416;-81
2022/12/01 13:45:18;;;;;;;;;;;6.90;99.90;;;;;;4998021;28;19921;-82
2022/12/01 13:47:52;;;;;;;;;;;6.80;99.90;;;;;;5030896;28;19928;-81
2022/12/01 13:50:43;;;;;;;;;;;6.80;99.90;;;;;;5030909;28;19928;-82
2022/12/01 13:53:12;;;;;;;;;;;6.80;99.90;;;;;;5030824;28;19926;-82
2022/12/01 13:55:49;;;;;;;;;;;6.80;99.90;;;;;;5042359;28;20324;-81
2022/12/01 13:58:15;;;;;;;;;;;6.80;99.90;;;;;;5017466;28;20004;-82
2022/12/01 14:00:41;;;;;;;;;;;6.80;99.90;;;;;;5050593;28;20012;-83
2022/12/01 14:03:18;;;;;;;;;;;6.70;99.90;;;;;;5017469;28;19936;-82
2022/12/01 14:05:44;;;;;;;;;;;6.70;99.90;;;;;;5008366;28;19921;-81
2022/12/01 14:08:20;;;;;;;;;;;6.70;99.90;;;;;;5014885;28;19925;-81
2022/12/01 14:10:58;;;;;;;;;;;6.70;99.90;;;;;;5015170;28;19922;-82
2022/12/01 14:13:25;;;;;;;;;;;6.70;99.90;;;;;;4997666;28;19928;-82
2022/12/01 14:15:53;;;;;;;;;;;6.60;99.90;;;;;;4997191;28;19957;-81
2022/12/01 14:18:33;;;;;;;;;;;6.60;99.90;;;;;;5030393;28;19921;-82
2022/12/01 14:21:00;;;;;;;;;;;6.60;99.90;;;;;;5014005;28;20277;-80
2022/12/01 14:23:37;;;;;;;;;;;6.60;99.90;;;;;;4997467;28;20321;-82
2022/12/01 14:26:13;;;;;;;;;;;6.60;99.90;;;;;;5013891;28;19928;-82
2022/12/01 14:28:54;;;;;;;;;;;6.60;99.90;;;;;;5013784;28;19937;-82
2022/12/01 14:31:40;;;;;;;;;;;6.60;99.90;;;;;;5029647;28;19979;-82
2022/12/01 14:34:07;;;;;;;;;;;6.50;99.90;;;;;;4996334;28;20031;-81
2022/12/01 14:36:43;;;;;;;;;;;6.50;99.90;;;;;;5017664;28;20275;-82
2022/12/01 14:39:18;;;;;;;;;;;6.60;99.90;;;;;;5016860;28;19928;-81
2022/12/01 14:41:44;;;;;;;;;;;6.50;99.90;;;;;;5016384;28;19927;-81
2022/12/01 14:44:32;;;;;;;;;;;6.50;99.90;;;;;;5042730;28;19968;-83
2022/12/01 14:47:00;;;;;;;;;;;6.50;99.90;;;;;;5014840;28;19928;-81
2022/12/01 14:49:30;;;;;;;;;;;6.50;99.90;;;;;;5014247;28;20233;-82